Model, Colorado
Current Conditions -  °F | °C
As of 1:54 AM on Wednesday 26 Nov 2014 (Local Time) from KTAD Reporting Station
Clear Clear  
Wind Chill: 19°   Ceiling: Unl
Heat Index: 30°   Visibility: 10mi
Dew Point: 23°   Wind: 15mph
Humidity: 75%   Direction: 30°NNE
Pressure: 30.14"   Gusts: NA
Location:  37.37°N, 104.25°W
Report Text: KTAD 260854Z AUTO 03013KT 10SM CLR M01/M05 A3014 RMK AO2 PK WND 02030/0813 SLP194 T10111050 53031
Loading
Personal Weather Stations






























Interactive Weather Map New forecast layout! Learn more

10-Day Weather Forecast

Advertisements
Track Severe Weather on mobile